Cleveland, OH (44136)

10:55 AM EST on February 08, 2016 (GMT -0500)
Albion Place | | Change Station
CLOSE
Current Station
Personal Weather Station
Location: Strongsville, OH
Elevation: 850 ft
Nearby Weather Stations

Elev 850 ft 41.33 °N, 81.84 °W | Updated 11 minutes ago

Snow
Snow Fog
35.6 °F
Feels Like 36 °F
N
0.0
Wind Variable Wind from WSW
Gusts 0.0 mph

Today
High -- | Low -- °F
--% Chance of Precip.
Yesterday
High -- | Low -- °F
Precip. -- in
Pressure 29.65 in
Visibility 0.5 miles
Clouds Scattered Clouds 400 ft
Overcast 800 ft
Windchill 36 °F
Dew Point 33 °F
Humidity 89%
Rainfall 0.00 in
Snow Depth Not available.
7:31 AM 5:52 PM
New Moon, 0% visible
METAR KCLE 081551Z 00000KT 1/2SM SN FG SCT004 OVC008 01/M01 A2963 RMK AO2 RAE25SNB12 SLP039 P0010 T00061006
Pressure 29.65 in
Visibility 0.5 miles
Clouds Scattered Clouds 400 ft
Overcast 800 ft
Windchill 36 °F
Dew Point 33 °F
Humidity 89%
Rainfall 0.00 in
Snow Depth Not available.
7:31 AM 5:52 PM
New Moon, 0% visible
METAR KCLE 081551Z 00000KT 1/2SM SN FG SCT004 OVC008 01/M01 A2963 RMK AO2 RAE25SNB12 SLP039 P0010 T00061006

10-Day Weather Forecast

Almanac

Astronomy

Feb. 08, 2016 Rise Set
Actual Time
Civil Twilight
Nautical Twilight
Astronomical Twilight
Moon
Length of Visible Light
Length of Day
Tomorrow will be .
, % of the Moon is Illuminated

Today's Extremes

State Highs State Lows

Community

WunderPhotos

Upload Photos

1,891,440 photos uploaded!

WunderBlog® & News

Nearby

Air Quality

  Air Quality AQ Index Pollutant
Not available.

Snow Depth

Station Depth Elevation

Earthquake Activity

City Distance Mag. Time & Date
Minimum magnitude displayed is 2.5.

Coastal Water Temperatures

Place Temperature

Stations

Nearby Weather Stations

Station Location Temp. Windchill Dew Point Humidity Wind Precip. Elev Updated Type
                   

Watches & Warnings

There are currently no watches in effect.